createdAt,value
2022-11-29T00:04:36.344Z,58.8
2022-11-29T00:09:36.180Z,58.8
2022-11-29T00:14:36.244Z,61.3
2022-11-29T00:19:36.422Z,60.3
2022-11-29T00:24:36.218Z,60.3
2022-11-29T00:29:36.196Z,60.3
2022-11-29T00:34:36.184Z,60.3
2022-11-29T00:39:36.211Z,61.3
2022-11-29T00:44:36.186Z,63.2
2022-11-29T00:49:36.179Z,63.2
2022-11-29T00:54:36.180Z,63.5
2022-11-29T00:59:36.229Z,63.7
2022-11-29T01:04:36.213Z,63.7
2022-11-29T01:09:36.265Z,63.7
2022-11-29T01:44:40.601Z,62.3
2022-11-29T01:49:40.581Z,60.4
2022-11-29T01:54:40.601Z,60.4
2022-11-29T01:59:40.597Z,60.4
2022-11-29T02:04:40.618Z,60.4
2022-11-29T02:09:40.613Z,60.2
2022-11-29T02:14:40.721Z,59.9
2022-11-29T02:19:40.619Z,59.9
2022-11-29T02:24:40.606Z,58.8
2022-11-29T02:29:40.640Z,57.6
2022-11-29T02:34:40.679Z,58.8
2022-11-29T02:39:40.630Z,58.8
2022-11-29T02:44:40.558Z,59.9
2022-11-29T02:49:40.634Z,59.9
2022-11-29T02:54:40.612Z,59.9
2022-11-29T02:59:40.703Z,60.6
2022-11-29T03:04:40.606Z,62
2022-11-29T03:09:40.638Z,62
2022-11-29T03:14:40.640Z,60.6
2022-11-29T03:19:40.592Z,60.6
2022-11-29T03:24:40.605Z,62
2022-11-29T03:29:40.598Z,62
2022-11-29T03:34:40.579Z,60.8
2022-11-29T03:39:40.635Z,60.1
2022-11-29T03:44:40.589Z,60.1
2022-11-29T03:49:40.650Z,60.1
2022-11-29T03:54:40.639Z,60.1
2022-11-29T03:59:40.624Z,60.1
2022-11-29T04:04:40.697Z,60.5
2022-11-29T04:09:40.610Z,58.6
2022-11-29T04:14:40.613Z,60.5
2022-11-29T04:19:40.666Z,60.5
2022-11-29T04:24:40.618Z,60.7
2022-11-29T04:29:40.626Z,61.2
2022-11-29T04:34:40.637Z,62
2022-11-29T04:39:40.655Z,62
2022-11-29T04:44:40.613Z,62
2022-11-29T04:49:40.637Z,61.2
2022-11-29T04:54:40.594Z,61.2
2022-11-29T04:59:40.647Z,61.2
2022-11-29T05:04:40.714Z,62.3
2022-11-29T05:09:40.580Z,62.3
2022-11-29T05:14:40.605Z,62.3
2022-11-29T05:19:40.611Z,62.6
2022-11-29T05:24:40.651Z,62.6
2022-11-29T05:29:40.624Z,62.6
2022-11-29T05:34:40.611Z,62.3
2022-11-29T05:39:40.596Z,62.3
2022-11-29T05:44:40.757Z,62.1
2022-11-29T05:49:40.641Z,59.9
2022-11-29T05:54:40.603Z,58.9
2022-11-29T05:59:40.691Z,58.9
2022-11-29T06:04:40.647Z,59.9
2022-11-29T06:09:40.601Z,59.9
2022-11-29T06:14:40.644Z,61.7
2022-11-29T06:19:40.638Z,62.6
2022-11-29T06:24:40.631Z,62.6
2022-11-29T06:29:40.649Z,64.6
2022-11-29T06:34:40.733Z,66.5
2022-11-29T06:39:40.624Z,66.5
2022-11-29T06:44:40.660Z,67
2022-11-29T06:49:40.635Z,67.3
2022-11-29T06:54:40.636Z,70.9
2022-11-29T06:59:40.668Z,71.2
2022-11-29T07:04:46.070Z,70.9
2022-11-29T07:09:40.681Z,73.9
2022-11-29T07:14:40.617Z,75.2
2022-11-29T07:19:40.600Z,77
2022-11-29T07:24:40.623Z,77
2022-11-29T07:29:40.636Z,76.1
2022-11-29T07:34:40.649Z,75.3
2022-11-29T07:39:40.666Z,76.1
2022-11-29T07:44:40.654Z,77.2
2022-11-29T07:49:40.650Z,77.5
2022-11-29T07:54:40.686Z,78.2
2022-11-29T07:59:40.767Z,79.1
2022-11-29T08:04:40.613Z,79.1
2022-11-29T08:09:40.707Z,79.1
2022-11-29T08:14:40.641Z,78.2
2022-11-29T08:19:40.653Z,74
2022-11-29T08:24:40.618Z,71.7
2022-11-29T08:29:40.694Z,71.7
2022-11-29T08:34:40.611Z,71.4
2022-11-29T08:39:40.646Z,68.5
2022-11-29T08:44:40.790Z,62.6
2022-11-29T08:49:40.699Z,62.6
2022-11-29T08:54:40.848Z,59.3
2022-11-29T08:59:40.652Z,58.25
2022-11-29T09:04:40.664Z,57.2
2022-11-29T09:09:40.638Z,58.25
2022-11-29T09:14:40.658Z,59.3
2022-11-29T09:19:40.654Z,58.25
2022-11-29T09:24:40.770Z,57.2
2022-11-29T09:29:41.241Z,57.2
2022-11-29T09:34:40.676Z,56.9
2022-11-29T09:39:40.675Z,55.4
2022-11-29T09:44:40.692Z,53.1
2022-11-29T09:49:40.659Z,52
2022-11-29T09:54:40.782Z,52
2022-11-29T09:59:40.631Z,52.4
2022-11-29T10:04:40.683Z,52.4
2022-11-29T10:09:40.656Z,53.1
2022-11-29T10:14:40.633Z,52.4
2022-11-29T10:19:40.655Z,52.4
2022-11-29T10:24:40.684Z,52.4
2022-11-29T10:29:40.681Z,52
2022-11-29T10:34:40.803Z,50.4
2022-11-29T10:39:40.670Z,45
2022-11-29T10:44:40.713Z,44.4
2022-11-29T10:49:40.655Z,44.4
2022-11-29T10:54:40.683Z,44.3
2022-11-29T10:59:40.665Z,44.2
2022-11-29T11:04:40.669Z,43.1
2022-11-29T11:09:40.623Z,44.2
2022-11-29T11:14:40.694Z,43.1
2022-11-29T11:19:40.847Z,44.2
2022-11-29T11:29:41.735Z,42.9
2022-11-29T11:34:40.684Z,44.15
2022-11-29T11:39:40.650Z,45.4
2022-11-29T11:44:47.896Z,45.9
2022-11-29T11:49:40.724Z,45.4
2022-11-29T11:54:40.678Z,44.15
2022-11-29T11:59:40.731Z,44.3
2022-11-29T12:04:40.638Z,45.4
2022-11-29T12:09:40.663Z,44.3
2022-11-29T12:14:40.752Z,40.4
2022-11-29T12:19:40.737Z,39.7
2022-11-29T12:24:40.672Z,40.2
2022-11-29T12:29:40.756Z,39.7
2022-11-29T12:34:43.757Z,39.2
2022-11-29T12:39:40.647Z,38.9
2022-11-29T12:44:40.623Z,39.2
2022-11-29T12:49:40.618Z,39.2
2022-11-29T12:54:40.664Z,39.2
2022-11-29T12:59:40.669Z,38.7
2022-11-29T13:04:40.654Z,36.4
2022-11-29T13:09:40.681Z,36.4
2022-11-29T13:14:44.153Z,39.8
2022-11-29T13:19:40.695Z,36.4
2022-11-29T13:24:44.156Z,37.9
2022-11-29T13:29:40.741Z,37.9
2022-11-29T13:34:40.725Z,37.9
2022-11-29T13:39:40.827Z,37.9
2022-11-29T13:44:40.728Z,37.9
2022-11-29T13:49:40.680Z,37.9
2022-11-29T13:54:40.716Z,37.9
2022-11-29T14:04:40.722Z,40.05
2022-11-29T14:14:41.012Z,40
2022-11-29T14:19:40.783Z,43.5
2022-11-29T14:25:01.078Z,42.3
2022-11-29T14:29:41.027Z,44.1
2022-11-29T14:34:41.037Z,43.2
2022-11-29T14:39:42.939Z,44.1
2022-11-29T14:44:40.764Z,44.9
2022-11-29T14:49:40.719Z,44.05
2022-11-29T14:54:50.678Z,43.4
2022-11-29T14:59:40.677Z,43.4
2022-11-29T15:04:40.743Z,43.2
2022-11-29T15:14:40.646Z,38.1
2022-11-29T15:19:40.700Z,38.1
2022-11-29T15:24:48.894Z,38.1
2022-11-29T15:29:40.694Z,38.1
2022-11-29T15:34:40.737Z,38.1
2022-11-29T15:39:46.813Z,37.7
2022-11-29T15:44:40.700Z,37.1
2022-11-29T15:49:40.725Z,37.1
2022-11-29T15:54:47.010Z,35.5
2022-11-29T15:59:40.708Z,35.5
2022-11-29T16:04:46.699Z,35.5
2022-11-29T16:09:40.768Z,37.2
2022-11-29T16:14:40.953Z,38.1
2022-11-29T16:19:40.705Z,38.1
2022-11-29T16:24:40.848Z,37.3
2022-11-29T16:29:40.698Z,38.1
2022-11-29T16:34:40.867Z,37.3
2022-11-29T16:39:48.385Z,37.2
2022-11-29T16:44:40.713Z,37.1
2022-11-29T16:49:40.686Z,37.1
2022-11-29T16:54:47.185Z,37.1
2022-11-29T16:59:40.680Z,39.2
2022-11-29T17:04:40.741Z,44.5
2022-11-29T17:09:47.973Z,51
2022-11-29T17:14:40.724Z,56.8
2022-11-29T17:19:40.786Z,56.8
2022-11-29T17:24:50.293Z,56.8
2022-11-29T17:29:40.738Z,56.8
2022-11-29T17:34:40.758Z,56.8
2022-11-29T17:39:48.266Z,56.8
2022-11-29T17:44:40.792Z,56.8
2022-11-29T17:49:40.688Z,56.4
2022-11-29T17:54:45.859Z,56.1
2022-11-29T17:59:40.789Z,56.1
2022-11-29T18:04:40.861Z,56.1
2022-11-29T18:09:40.887Z,56.1
2022-11-29T18:14:40.756Z,54.3
2022-11-29T18:19:40.740Z,53.4
2022-11-29T18:24:40.964Z,53.4
2022-11-29T18:29:40.723Z,51.7
2022-11-29T18:34:40.713Z,51.7
2022-11-29T18:39:49.975Z,51.1
2022-11-29T18:44:40.790Z,51.7
2022-11-29T18:49:40.921Z,54.8
2022-11-29T18:54:48.432Z,55.2
2022-11-29T18:59:40.682Z,62.3
2022-11-29T19:09:40.836Z,50
2022-11-29T19:14:48.211Z,49.45
2022-11-29T19:19:40.678Z,50
2022-11-29T19:24:40.712Z,51.7
2022-11-29T19:29:41.981Z,50.9
2022-11-29T19:34:40.705Z,51.85
2022-11-29T19:39:40.715Z,52.8
2022-11-29T19:45:15.171Z,52.8
2022-11-29T19:49:46.660Z,52.8
2022-11-29T19:54:40.762Z,50.9
2022-11-29T19:59:40.701Z,50.4
2022-11-29T20:04:40.711Z,50.4
2022-11-29T20:09:40.832Z,50.1
2022-11-29T20:14:40.777Z,49.7
2022-11-29T20:19:40.719Z,50.1
2022-11-29T20:24:45.467Z,50.1
2022-11-29T20:29:40.711Z,50.1
2022-11-29T20:34:40.712Z,49.6
2022-11-29T20:39:40.788Z,49.6
2022-11-29T20:44:40.689Z,49.6
2022-11-29T20:49:40.732Z,53.5
2022-11-29T20:54:40.711Z,53.5
2022-11-29T20:59:40.710Z,61
2022-11-29T21:04:40.683Z,62.9
2022-11-29T21:09:40.806Z,70.1
2022-11-29T21:14:40.711Z,86.8
2022-11-29T21:19:40.760Z,233.3
2022-11-29T21:24:42.041Z,233.3
2022-11-29T21:29:40.684Z,233.3
2022-11-29T21:34:40.689Z,233.3
2022-11-29T21:39:40.759Z,115.8
2022-11-29T21:44:40.775Z,62.3
2022-11-29T21:49:40.736Z,60.6
2022-11-29T21:54:40.806Z,57.4
2022-11-29T21:59:40.712Z,56.2
2022-11-29T22:04:40.729Z,56.2
2022-11-29T22:09:40.765Z,56.2
2022-11-29T22:14:40.717Z,55.6
2022-11-29T22:19:40.841Z,55.6
2022-11-29T22:24:40.706Z,55.6
2022-11-29T22:29:40.729Z,58.6
2022-11-29T22:34:40.712Z,58.6
2022-11-29T22:39:40.695Z,57.1
2022-11-29T22:44:40.724Z,53.3
2022-11-29T22:49:40.719Z,53.3
2022-11-29T22:54:40.836Z,53.3
2022-11-29T22:59:40.764Z,52.8
2022-11-29T23:04:40.746Z,50.4
2022-11-29T23:09:40.759Z,47.9
2022-11-29T23:14:40.748Z,47.9
2022-11-29T23:19:40.734Z,50.4
2022-11-29T23:24:40.740Z,50.5
2022-11-29T23:29:40.730Z,50.5
2022-11-29T23:34:40.753Z,51.6
2022-11-29T23:39:40.818Z,52.4
2022-11-29T23:44:40.920Z,54.9
2022-11-29T23:49:40.706Z,53.8
2022-11-29T23:54:40.709Z,54.9
2022-11-29T23:59:40.830Z,53.8
